Edmon, Pennsylvania
Current Conditions -  °F | °C
As of 4:50 PM on Monday 24 Nov 2014 (Local Time) from KLBE Reporting Station
Scattered Clouds Scattered Clouds  
Wind Chill: 64°   Ceiling: Unl
Heat Index: 64°   Visibility: 10mi
Dew Point: 43°   Wind: 25mph
Humidity: 45%   Direction: 230°SW
Pressure: 29.57"   Gusts: 37mph
Location:  40.53°N, 79.49°W
Report Text: KLBE 242150Z 23022G32KT 10SM SCT070 18/06 A2957
Loading
Personal Weather Stations






























Interactive Weather Map New forecast layout! Learn more

10-Day Weather Forecast

Advertisements
Track Severe Weather on mobile